KOWB/OWB METAR and TAF weather

Enter ICAO airport designator
Station Type Date Time Source
KOWB METAR 2021/08/05 05:56 UTC NOAA

KOWB 050556Z AUTO 31005KT 10SM CLR 18/15 A3011 RMK AO2 SLP193 T01780150 10272 20178 402890156 50005


Station Type Date Time Source
KOWB Decoded METAR 2021/08/05 05:56 UTC NOAA

Owensboro, Owensboro-Daviess County Airport, KY, United States (KOWB) 37-44-24N 087-10-00W
Aug 05, 2021 - 01:56 AM EDT / 2021.08.05 0556 UTC
Wind: from the NW (310 degrees) at 6 MPH (5 KT):0
Visibility: 10 mile(s):0
Sky conditions: clear
Temperature: 64.0 F (17.8 C)
Dew Point: 59.0 F (15.0 C)
Relative Humidity: 83%
Pressure (altimeter): 30.11 in. Hg (1019 hPa)
Pressure tendency: 0.01 inches (0.5 hPa) higher than three hours ago
ob: KOWB 050556Z AUTO 31005KT 10SM CLR 18/15 A3011 RMK AO2 SLP193 T01780150 10272 20178 402890156 50005
cycle: 6

Station Type Date Time Source
KOWB TAF 2021/08/05 06:22 UTC NOAA

TAF KOWB 050520Z 0506/0606 VRB04KT P6SM SKC
FM051600 VRB04KT P6SM SCT060

Example: see airport list